Time;durP1;ratioP1;P1;durP2;ratioP2;P2;SDS_P1;SDS_P2;PMS_P1;PMS_P2;Temp;Humidity;BMP_temperature;BMP_pressure;BME280_temperature;BME280_humidity;BME280_pressure;Samples;Min_cycle;Max_cycle;Signal;HPM_P1;HPM_P2
2022/12/08 00:01:45;;;;;;;13.40;11.07;;;7.70;73.70;;;;;;5005385;28;20050;-59
2022/12/08 00:04:17;;;;;;;15.57;11.13;;;7.70;73.60;;;;;;5009417;28;20038;-59
2022/12/08 00:09:40;;;;;;;13.63;11.40;;;7.70;73.70;;;;;;5009663;28;20066;-59
2022/12/08 00:12:12;;;;;;;14.70;11.02;;;7.60;73.70;;;;;;4998091;28;20038;-58
2022/12/08 00:14:45;;;;;;;16.15;12.32;;;7.60;73.70;;;;;;5009214;28;20096;-59
2022/12/08 00:17:15;;;;;;;18.80;12.52;;;7.70;73.90;;;;;;5009658;28;20072;-59
2022/12/08 00:19:52;;;;;;;14.88;12.13;;;7.60;73.80;;;;;;5006621;28;20048;-58
2022/12/08 00:22:21;;;;;;;19.13;13.98;;;7.70;73.90;;;;;;5013541;28;20051;-57
2022/12/08 00:24:50;;;;;;;19.60;14.57;;;7.60;73.90;;;;;;5010309;28;20042;-58
2022/12/08 00:27:17;;;;;;;23.50;15.68;;;7.60;74.00;;;;;;5007761;28;20034;-58
2022/12/08 00:29:49;;;;;;;21.25;15.82;;;7.70;74.10;;;;;;5006424;28;20043;-59
2022/12/08 00:32:16;;;;;;;23.38;16.27;;;7.70;74.10;;;;;;5007847;28;20064;-57
2022/12/08 00:34:45;;;;;;;23.52;16.88;;;7.70;74.10;;;;;;5010037;28;20081;-58
2022/12/08 00:37:11;;;;;;;20.90;16.13;;;7.60;74.00;;;;;;5013473;28;20498;-57
2022/12/08 00:39:40;;;;;;;22.10;16.45;;;7.70;74.10;;;;;;5008431;28;20058;-59
2022/12/08 00:42:11;;;;;;;21.58;16.17;;;7.70;74.10;;;;;;5013502;28;20052;-59
2022/12/08 00:44:43;;;;;;;23.95;17.17;;;7.70;74.20;;;;;;5011717;28;20120;-58
2022/12/08 00:47:11;;;;;;;22.27;16.77;;;7.70;74.20;;;;;;5013449;28;20061;-59
2022/12/08 00:49:39;;;;;;;25.17;17.48;;;7.70;74.10;;;;;;5005768;28;20052;-58
2022/12/08 00:52:08;;;;;;;25.77;17.73;;;7.70;74.10;;;;;;5013019;28;20081;-59
2022/12/08 00:54:35;;;;;;;24.10;17.63;;;7.70;74.10;;;;;;5012586;28;20076;-57
2022/12/08 00:57:02;;;;;;;24.55;17.77;;;7.70;74.10;;;;;;4998716;28;20072;-58
2022/12/08 00:59:29;;;;;;;23.70;18.35;;;7.80;74.10;;;;;;5009319;28;20038;-58
2022/12/08 01:01:57;;;;;;;23.83;16.80;;;7.80;74.00;;;;;;5013026;28;20421;-57
2022/12/08 01:04:27;;;;;;;23.55;16.77;;;7.70;74.00;;;;;;5012594;28;20040;-58
2022/12/08 01:06:56;;;;;;;21.15;16.80;;;7.80;74.10;;;;;;5010212;28;20490;-58
2022/12/08 01:09:22;;;;;;;21.13;15.90;;;7.80;74.10;;;;;;5009746;28;20045;-59
2022/12/08 01:11:49;;;;;;;23.27;17.48;;;7.80;74.80;;;;;;5012810;28;20041;-58
2022/12/08 01:14:18;;;;;;;22.00;16.85;;;7.80;74.00;;;;;;5013513;28;20049;-57
2022/12/08 01:16:48;;;;;;;19.65;16.05;;;7.80;74.00;;;;;;5011414;28;20060;-58
2022/12/08 01:19:16;;;;;;;22.00;16.27;;;7.80;73.90;;;;;;5008912;28;20042;-58
2022/12/08 01:21:43;;;;;;;20.98;16.10;;;7.90;73.90;;;;;;5012669;28;20126;-59
2022/12/08 01:24:12;;;;;;;20.95;15.05;;;7.90;73.90;;;;;;5030226;28;20046;-59
2022/12/08 01:26:40;;;;;;;20.13;15.48;;;7.90;73.90;;;;;;5007721;28;20042;-59
2022/12/08 01:29:10;;;;;;;21.25;15.27;;;7.90;74.50;;;;;;5011523;28;20042;-58
2022/12/08 01:31:38;;;;;;;19.67;14.90;;;7.90;73.80;;;;;;5012603;28;20087;-59
2022/12/08 01:34:10;;;;;;;19.50;15.20;;;7.90;73.70;;;;;;5013232;28;20092;-59
2022/12/08 01:36:43;;;;;;;16.95;14.30;;;7.90;73.70;;;;;;5008457;28;20920;-58
2022/12/08 01:39:15;;;;;;;20.52;15.02;;;7.90;73.60;;;;;;5012890;28;20128;-58
2022/12/08 01:41:42;;;;;;;19.95;14.35;;;7.90;73.70;;;;;;5012336;28;20132;-58
2022/12/08 01:44:16;;;;;;;18.93;13.43;;;7.90;73.60;;;;;;5012356;28;20041;-59
2022/12/08 01:46:46;;;;;;;21.42;14.50;;;7.90;73.60;;;;;;5008074;28;20041;-58
2022/12/08 01:49:26;;;;;;;22.73;16.50;;;7.90;73.60;;;;;;5013098;28;20088;-58
2022/12/08 01:52:01;;;;;;;23.65;17.20;;;8.00;73.60;;;;;;5012335;28;20065;-59
2022/12/08 01:54:33;;;;;;;20.30;16.20;;;7.90;73.40;;;;;;5011737;28;20042;-58
2022/12/08 01:57:07;;;;;;;21.63;17.27;;;8.00;73.50;;;;;;5004680;28;20124;-58
2022/12/08 01:59:43;;;;;;;19.88;15.63;;;8.00;73.50;;;;;;5009628;28;20049;-59
2022/12/08 02:02:13;;;;;;;23.33;15.68;;;8.00;73.30;;;;;;5005644;28;20073;-59
2022/12/08 02:04:41;;;;;;;25.67;17.35;;;8.00;73.30;;;;;;5007364;28;20081;-59
2022/12/08 02:07:12;;;;;;;27.20;18.52;;;8.00;73.40;;;;;;5011931;28;20045;-59
2022/12/08 02:09:43;;;;;;;22.05;17.27;;;8.00;73.30;;;;;;5011544;28;20046;-59
2022/12/08 02:12:10;;;;;;;23.05;17.80;;;8.00;73.30;;;;;;5007667;28;20105;-59
2022/12/08 02:14:40;;;;;;;22.15;18.70;;;8.00;73.20;;;;;;5011073;28;20046;-58
2022/12/08 02:17:50;;;;;;;22.80;18.38;;;8.00;73.20;;;;;;5011447;28;20046;-58
2022/12/08 02:20:35;;;;;;;19.08;15.20;;;8.00;73.10;;;;;;4997853;28;20038;-58
2022/12/08 02:23:05;;;;;;;18.95;15.20;;;8.00;73.10;;;;;;5003459;28;20041;-58
2022/12/08 02:25:40;;;;;;;17.13;14.98;;;8.00;73.00;;;;;;5006443;28;20418;-58
2022/12/08 02:28:32;;;;;;;20.08;16.00;;;8.00;73.10;;;;;;5005573;28;20076;-58
2022/12/08 02:31:14;;;;;;;24.77;18.13;;;8.00;73.10;;;;;;5009111;28;20038;-59
2022/12/08 02:33:51;;;;;;;26.52;20.45;;;8.00;73.10;;;;;;5009580;28;20117;-58
2022/12/08 02:36:36;;;;;;;25.73;19.10;;;8.00;73.10;;;;;;5011116;28;20057;-58
2022/12/08 02:39:03;;;;;;;25.13;17.88;;;8.00;73.10;;;;;;5009744;28;20049;-59
2022/12/08 02:41:46;;;;;;;19.08;14.32;;;8.00;73.10;;;;;;5004130;28;20045;-59
2022/12/08 02:44:35;;;;;;;16.65;13.15;;;8.00;73.10;;;;;;5005307;28;20038;-56
2022/12/08 02:47:16;;;;;;;18.08;12.70;;;8.00;73.10;;;;;;5011428;28;20038;-59
2022/12/08 02:49:43;;;;;;;13.25;10.90;;;8.00;73.10;;;;;;5011254;28;20092;-58
2022/12/08 02:52:15;;;;;;;14.73;11.27;;;8.00;73.10;;;;;;5007489;28;20066;-57
2022/12/08 02:54:50;;;;;;;12.77;10.45;;;8.00;73.10;;;;;;5010296;28;20125;-59
2022/12/08 02:57:34;;;;;;;12.02;10.57;;;8.00;73.10;;;;;;5006620;28;20064;-58
2022/12/08 03:00:15;;;;;;;14.32;10.45;;;8.00;73.20;;;;;;5002146;28;20041;-58
2022/12/08 03:02:51;;;;;;;13.73;10.23;;;8.00;73.10;;;;;;5009461;28;20065;-58
2022/12/08 03:05:41;;;;;;;16.75;9.93;;;8.00;73.20;;;;;;5011214;28;20042;-59
2022/12/08 03:08:19;;;;;;;15.13;10.45;;;8.00;73.20;;;;;;5011529;28;20478;-58
2022/12/08 03:11:01;;;;;;;12.20;9.93;;;8.00;73.20;;;;;;5006212;28;20044;-59
2022/12/08 03:13:38;;;;;;;13.48;9.35;;;8.00;73.20;;;;;;5006745;28;20084;-59
2022/12/08 03:16:11;;;;;;;13.68;10.02;;;8.00;73.20;;;;;;5000969;28;20038;-58
2022/12/08 03:18:43;;;;;;;10.88;9.50;;;8.00;73.20;;;;;;5003366;28;20390;-58
2022/12/08 03:21:13;;;;;;;12.00;9.57;;;8.00;73.20;;;;;;5007961;28;20042;-59
2022/12/08 03:23:43;;;;;;;13.20;10.13;;;8.00;73.20;;;;;;5009327;28;20056;-58
2022/12/08 03:26:22;;;;;;;11.57;9.32;;;8.00;73.20;;;;;;5009222;28;20042;-58
2022/12/08 03:28:49;;;;;;;13.43;10.60;;;8.00;73.20;;;;;;5005246;28;20042;-59
2022/12/08 03:31:17;;;;;;;14.38;11.05;;;8.00;73.20;;;;;;5009933;28;20170;-58
2022/12/08 03:33:50;;;;;;;15.30;11.13;;;8.00;73.20;;;;;;5011112;28;20050;-58
2022/12/08 03:36:19;;;;;;;14.82;11.68;;;7.90;73.20;;;;;;5006626;28;20045;-58
2022/12/08 03:38:51;;;;;;;16.25;13.20;;;8.00;73.30;;;;;;5005499;28;20038;-59
2022/12/08 03:41:21;;;;;;;18.45;14.18;;;8.00;73.40;;;;;;5009667;28;20081;-59
2022/12/08 03:43:52;;;;;;;16.55;12.88;;;8.00;73.30;;;;;;5010545;28;20205;-58
2022/12/08 03:46:21;;;;;;;15.73;12.25;;;8.00;73.30;;;;;;5008415;28;20046;-59
2022/12/08 03:48:47;;;;;;;16.30;12.20;;;8.00;73.20;;;;;;5006643;28;20399;-59
2022/12/08 03:51:14;;;;;;;13.15;11.13;;;8.00;73.20;;;;;;5009596;28;20038;-58
2022/12/08 03:53:44;;;;;;;16.33;12.10;;;8.00;73.20;;;;;;5010496;28;20050;-59
2022/12/08 03:56:15;;;;;;;12.60;10.05;;;8.00;73.30;;;;;;5001051;28;20044;-57
2022/12/08 03:58:43;;;;;;;14.30;10.50;;;7.90;73.30;;;;;;5005598;28;20768;-58
2022/12/08 04:01:11;;;;;;;13.02;10.05;;;8.00;73.40;;;;;;5009300;28;20062;-59
2022/12/08 04:03:37;;;;;;;13.43;10.13;;;8.00;73.40;;;;;;5010504;28;20069;-58
2022/12/08 04:06:05;;;;;;;11.85;9.13;;;7.90;73.30;;;;;;5008017;28;20045;-59
2022/12/08 04:08:34;;;;;;;12.10;9.45;;;7.90;73.30;;;;;;5008265;28;20045;-59
2022/12/08 04:11:01;;;;;;;12.43;10.00;;;7.90;73.40;;;;;;5012026;28;20045;-58
2022/12/08 04:13:28;;;;;;;12.35;9.00;;;7.90;73.40;;;;;;5014799;28;20048;-59
2022/12/08 04:15:55;;;;;;;12.25;9.32;;;7.90;73.40;;;;;;5006665;28;20049;-59
2022/12/08 04:18:23;;;;;;;12.75;10.40;;;7.90;73.50;;;;;;5012826;28;20038;-59
2022/12/08 04:20:49;;;;;;;12.85;9.60;;;7.90;73.60;;;;;;5013326;28;20050;-58
2022/12/08 04:23:18;;;;;;;11.80;9.68;;;7.90;73.60;;;;;;5013364;28;20073;-58
2022/12/08 04:25:45;;;;;;;11.57;9.73;;;7.90;73.60;;;;;;5010890;28;20045;-58
2022/12/08 04:28:12;;;;;;;14.23;10.90;;;7.90;73.60;;;;;;5014373;28;20034;-59
2022/12/08 04:30:39;;;;;;;14.77;10.82;;;7.90;73.50;;;;;;5012988;28;20069;-59
2022/12/08 04:33:06;;;;;;;17.50;12.07;;;7.90;73.60;;;;;;5013404;28;20045;-58
2022/12/08 04:35:33;;;;;;;18.85;14.35;;;7.90;73.60;;;;;;5007954;28;20049;-59
2022/12/08 04:37:59;;;;;;;19.08;13.68;;;7.90;73.60;;;;;;5013864;28;20045;-58
2022/12/08 04:40:26;;;;;;;19.98;13.73;;;7.90;73.60;;;;;;5013032;28;20073;-58
2022/12/08 04:42:53;;;;;;;22.58;15.93;;;7.90;73.60;;;;;;5008071;28;20446;-58
2022/12/08 04:45:19;;;;;;;21.73;16.00;;;7.90;73.60;;;;;;5013279;28;20037;-58
2022/12/08 04:47:48;;;;;;;25.15;17.10;;;7.90;73.70;;;;;;5013588;28;20113;-58
2022/12/08 04:50:18;;;;;;;23.48;16.50;;;7.90;73.70;;;;;;5011594;28;20030;-59
2022/12/08 04:52:44;;;;;;;22.42;16.83;;;7.90;73.70;;;;;;5008185;28;20044;-58
2022/12/08 04:55:15;;;;;;;25.23;16.67;;;7.90;73.70;;;;;;5012581;28;20046;-59
2022/12/08 04:57:42;;;;;;;23.10;16.95;;;7.90;73.70;;;;;;5006641;28;20054;-58
2022/12/08 05:00:11;;;;;;;28.67;17.85;;;7.90;73.70;;;;;;5012612;28;20038;-59
2022/12/08 05:02:41;;;;;;;25.50;19.70;;;7.90;73.70;;;;;;5013086;28;20620;-58
2022/12/08 05:05:12;;;;;;;24.88;19.23;;;7.90;73.70;;;;;;5012489;28;20057;-57
2022/12/08 05:07:39;;;;;;;30.30;21.13;;;7.90;73.70;;;;;;5009904;28;20465;-58
2022/12/08 05:10:10;;;;;;;31.45;20.50;;;7.90;73.70;;;;;;5010726;28;20054;-58
2022/12/08 05:12:36;;;;;;;28.30;21.70;;;7.90;73.70;;;;;;5005560;28;20049;-59
2022/12/08 05:15:03;;;;;;;28.70;21.25;;;7.90;73.70;;;;;;5011255;28;20038;-58
2022/12/08 05:17:30;;;;;;;32.95;23.67;;;7.90;73.70;;;;;;5012250;28;20042;-58
2022/12/08 05:19:57;;;;;;;33.67;23.85;;;7.90;73.70;;;;;;5009189;28;20528;-58
2022/12/08 05:22:23;;;;;;;28.85;21.80;;;7.90;73.70;;;;;;5005866;28;20035;-58
2022/12/08 05:24:50;;;;;;;31.00;22.70;;;7.80;73.70;;;;;;5010691;28;20038;-58
2022/12/08 05:27:19;;;;;;;23.85;18.88;;;7.80;73.70;;;;;;5011202;28;20064;-58
2022/12/08 05:29:47;;;;;;;29.02;18.95;;;7.80;74.40;;;;;;5008840;28;20048;-58
2022/12/08 05:32:13;;;;;;;24.42;18.88;;;7.80;73.80;;;;;;5010031;28;20041;-59
2022/12/08 05:34:40;;;;;;;25.88;19.55;;;7.80;73.80;;;;;;5010859;28;20042;-59
2022/12/08 05:37:06;;;;;;;27.27;21.10;;;7.80;73.90;;;;;;5009647;28;20442;-58
2022/12/08 05:39:33;;;;;;;29.80;21.17;;;7.70;73.90;;;;;;5010056;28;20061;-58
2022/12/08 05:42:00;;;;;;;28.77;21.45;;;7.70;74.00;;;;;;5010690;28;20034;-58
2022/12/08 05:44:27;;;;;;;30.38;21.67;;;7.80;74.00;;;;;;5010576;28;20422;-57
2022/12/08 05:46:53;;;;;;;28.17;21.17;;;7.70;74.00;;;;;;5008866;28;20109;-58
2022/12/08 05:49:20;;;;;;;26.98;19.85;;;7.70;74.00;;;;;;5008888;28;20385;-58
2022/12/08 05:51:47;;;;;;;30.98;21.52;;;7.70;74.00;;;;;;5010151;28;20462;-58
2022/12/08 05:54:13;;;;;;;29.92;22.75;;;7.70;74.10;;;;;;5010446;28;20053;-58
2022/12/08 05:56:40;;;;;;;29.80;22.13;;;7.70;74.10;;;;;;5011240;28;20122;-58
2022/12/08 05:59:07;;;;;;;30.23;22.02;;;7.70;74.10;;;;;;5005902;28;20117;-59
2022/12/08 06:01:34;;;;;;;28.95;21.05;;;7.70;74.20;;;;;;5011230;28;20038;-58
2022/12/08 06:04:02;;;;;;;31.95;22.70;;;7.70;74.30;;;;;;5012202;28;20541;-58
2022/12/08 06:06:30;;;;;;;29.92;22.38;;;7.70;74.40;;;;;;5003933;28;20467;-58
2022/12/08 06:08:56;;;;;;;30.98;21.35;;;7.70;74.50;;;;;;5008109;28;20046;-58
2022/12/08 06:11:29;;;;;;;31.60;21.73;;;7.70;74.50;;;;;;5009863;28;20522;-57
2022/12/08 06:13:56;;;;;;;32.05;22.45;;;7.70;74.50;;;;;;5011873;28;20476;-58
2022/12/08 06:16:27;;;;;;;30.60;21.65;;;7.70;74.40;;;;;;5003038;28;20652;-58
2022/12/08 06:18:54;;;;;;;29.33;20.48;;;7.70;74.30;;;;;;5008323;28;20046;-58
2022/12/08 06:21:21;;;;;;;31.02;19.85;;;7.70;74.20;;;;;;5009661;28;20052;-57
2022/12/08 06:23:50;;;;;;;28.73;19.75;;;7.70;74.20;;;;;;5018183;28;20207;-54
2022/12/08 06:26:20;;;;;;;25.73;19.43;;;7.70;74.00;;;;;;5005635;28;20125;-50
2022/12/08 06:28:48;;;;;;;25.38;19.35;;;7.70;74.10;;;;;;5007570;28;20281;-50
2022/12/08 06:31:21;;;;;;;24.65;18.00;;;7.70;74.20;;;;;;5009255;28;20038;-49
2022/12/08 06:33:48;;;;;;;28.83;20.13;;;7.70;74.20;;;;;;5007207;28;20052;-52
2022/12/08 06:36:18;;;;;;;30.92;20.20;;;7.70;74.10;;;;;;5002765;28;20113;-53
2022/12/08 06:38:45;;;;;;;32.17;22.10;;;7.70;74.00;;;;;;5009690;28;20517;-50
2022/12/08 06:41:12;;;;;;;26.95;20.05;;;7.70;74.00;;;;;;5007806;28;20038;-50
2022/12/08 06:43:39;;;;;;;25.13;18.60;;;7.70;74.00;;;;;;5009525;28;20056;-51
2022/12/08 06:46:09;;;;;;;26.45;19.65;;;7.70;74.00;;;;;;5003919;28;20042;-52
2022/12/08 06:48:36;;;;;;;27.50;18.73;;;7.70;73.90;;;;;;5009605;28;20038;-50
2022/12/08 06:51:10;;;;;;;22.23;16.73;;;7.70;73.80;;;;;;5000414;28;20546;-50
2022/12/08 06:53:38;;;;;;;21.38;14.45;;;7.60;73.70;;;;;;5009594;28;20133;-54
2022/12/08 06:56:14;;;;;;;23.42;17.65;;;7.60;73.70;;;;;;5006589;28;20049;-50
2022/12/08 06:58:41;;;;;;;31.00;20.13;;;7.60;73.80;;;;;;5009417;28;20045;-49
2022/12/08 07:01:16;;;;;;;25.65;19.23;;;7.60;73.80;;;;;;5009677;28;20061;-52
2022/12/08 07:03:43;;;;;;;25.70;17.88;;;7.60;73.90;;;;;;5002282;28;20137;-49
2022/12/08 07:06:14;;;;;;;23.42;17.63;;;7.60;74.00;;;;;;5007474;28;20050;-50
2022/12/08 07:08:43;;;;;;;23.10;17.85;;;7.60;74.00;;;;;;5010039;28;20056;-50
2022/12/08 07:11:11;;;;;;;22.33;16.90;;;7.50;73.90;;;;;;5010080;28;20046;-54
2022/12/08 07:13:47;;;;;;;21.35;15.50;;;7.50;74.00;;;;;;5007006;28;20490;-52
2022/12/08 07:16:16;;;;;;;22.92;16.55;;;7.50;74.00;;;;;;5009453;28;20463;-51
2022/12/08 07:18:45;;;;;;;23.67;15.70;;;7.50;74.10;;;;;;5009937;28;20438;-50
2022/12/08 07:21:17;;;;;;;19.13;14.15;;;7.50;74.00;;;;;;5007659;28;20054;-49
2022/12/08 07:23:49;;;;;;;22.58;15.15;;;7.50;74.10;;;;;;5003979;28;20042;-51
2022/12/08 07:26:23;;;;;;;24.77;17.10;;;7.50;74.10;;;;;;5009777;28;20046;-54
2022/12/08 07:28:50;;;;;;;22.45;16.92;;;7.50;74.10;;;;;;5009705;28;20056;-52
2022/12/08 07:31:22;;;;;;;24.15;16.88;;;7.50;74.20;;;;;;5009007;28;20806;-51
2022/12/08 07:33:53;;;;;;;24.45;16.90;;;7.50;74.10;;;;;;5003917;28;20108;-50
2022/12/08 07:36:26;;;;;;;26.30;17.40;;;7.50;74.10;;;;;;5002925;28;20092;-50
2022/12/08 07:38:56;;;;;;;26.55;18.17;;;7.50;74.10;;;;;;5009885;28;20046;-53
2022/12/08 07:41:24;;;;;;;25.63;17.10;;;7.50;74.00;;;;;;5007570;28;20048;-49
2022/12/08 07:43:52;;;;;;;26.23;18.15;;;7.50;74.10;;;;;;5022851;23;20032;-49
2022/12/08 07:46:21;;;;;;;25.17;17.58;;;7.50;74.20;;;;;;5026113;28;20076;-50
2022/12/08 07:48:48;;;;;;;26.15;17.73;;;7.50;74.10;;;;;;5024137;28;20048;-55
2022/12/08 07:51:15;;;;;;;26.65;18.33;;;7.50;74.10;;;;;;5030620;28;20039;-55
2022/12/08 07:53:46;;;;;;;25.60;17.15;;;7.50;74.10;;;;;;5032873;28;20591;-54
2022/12/08 07:56:23;;;;;;;24.65;17.13;;;7.50;74.00;;;;;;5048118;28;20052;-52
2022/12/08 07:58:49;;;;;;;24.63;17.08;;;7.50;74.00;;;;;;5050689;28;20048;-50
2022/12/08 08:01:34;;;;;;;24.65;16.85;;;7.50;74.00;;;;;;5045913;28;20098;-54
2022/12/08 08:04:03;;;;;;;23.73;16.40;;;7.50;74.10;;;;;;5042530;28;20509;-53
2022/12/08 08:06:32;;;;;;;23.42;17.02;;;7.50;74.10;;;;;;5047056;28;20532;-51
2022/12/08 08:08:59;;;;;;;25.85;16.55;;;7.50;74.10;;;;;;5050377;28;20048;-52
2022/12/08 08:11:25;;;;;;;22.67;16.25;;;7.50;74.10;;;;;;5050358;28;20045;-51
2022/12/08 08:13:52;;;;;;;25.65;16.65;;;7.50;74.00;;;;;;5050668;28;20079;-55
2022/12/08 08:16:21;;;;;;;22.63;15.65;;;7.50;74.00;;;;;;5043448;28;20045;-52
2022/12/08 08:18:50;;;;;;;21.70;14.85;;;7.50;74.00;;;;;;5046592;28;20049;-54
2022/12/08 08:21:18;;;;;;;22.98;14.10;;;7.50;74.00;;;;;;5044691;28;20096;-54
2022/12/08 08:24:04;;;;;;;20.13;13.23;;;7.40;73.90;;;;;;5046212;28;20041;-54
2022/12/08 08:26:36;;;;;;;22.13;14.75;;;7.40;73.90;;;;;;5050591;28;20083;-52
2022/12/08 08:29:02;;;;;;;20.25;13.43;;;7.40;73.80;;;;;;5050846;28;20117;-51
2022/12/08 08:31:30;;;;;;;20.92;14.32;;;7.40;73.90;;;;;;5045533;28;20037;-51
2022/12/08 08:33:59;;;;;;;20.35;13.02;;;7.40;73.80;;;;;;5049616;28;20529;-53
2022/12/08 08:36:25;;;;;;;19.33;13.65;;;7.40;73.80;;;;;;5050733;28;20048;-52
2022/12/08 08:38:52;;;;;;;19.90;13.07;;;7.40;73.80;;;;;;5047350;28;20498;-51
2022/12/08 08:41:19;;;;;;;19.60;12.98;;;7.40;73.80;;;;;;5050488;28;20060;-51
2022/12/08 08:43:45;;;;;;;16.45;12.90;;;7.40;73.70;;;;;;5042798;28;20482;-52
2022/12/08 08:46:12;;;;;;;17.50;12.20;;;7.40;73.80;;;;;;5041625;28;20066;-53
2022/12/08 08:48:41;;;;;;;19.73;13.30;;;7.40;73.80;;;;;;5050264;28;20514;-50
2022/12/08 08:51:09;;;;;;;17.15;12.52;;;7.40;73.70;;;;;;5050415;28;20049;-50
2022/12/08 08:53:37;;;;;;;16.33;12.25;;;7.40;73.80;;;;;;5048317;28;20501;-54
2022/12/08 08:56:15;;;;;;;18.73;12.98;;;7.40;74.00;;;;;;5046369;28;20513;-53
2022/12/08 08:58:42;;;;;;;16.27;11.35;;;7.50;74.00;;;;;;5051011;28;20053;-55
2022/12/08 09:01:17;;;;;;;21.20;13.02;;;7.50;73.90;;;;;;5052333;28;20044;-50
2022/12/08 09:03:51;;;;;;;18.20;12.73;;;7.50;73.90;;;;;;5054227;28;20044;-54
2022/12/08 09:06:19;;;;;;;18.73;13.10;;;7.50;73.80;;;;;;5048229;28;20037;-54
2022/12/08 09:08:50;;;;;;;20.17;12.35;;;7.50;73.80;;;;;;5053401;28;20123;-53
2022/12/08 09:11:17;;;;;;;17.25;10.70;;;7.50;73.80;;;;;;5053962;28;20051;-52
2022/12/08 09:13:48;;;;;;;16.05;11.52;;;7.50;73.70;;;;;;5046962;28;20502;-53
2022/12/08 09:16:15;;;;;;;19.75;12.15;;;7.60;73.80;;;;;;5046745;28;20044;-54
2022/12/08 09:18:42;;;;;;;16.55;12.13;;;7.60;73.80;;;;;;5045280;28;20059;-54
2022/12/08 09:21:12;;;;;;;16.23;11.05;;;7.60;73.90;;;;;;5053712;28;20394;-53
2022/12/08 09:23:41;;;;;;;16.38;11.40;;;7.60;73.60;;;;;;5051260;28;20166;-54
2022/12/08 09:26:08;;;;;;;16.80;11.90;;;7.60;73.60;;;;;;5051308;28;20037;-51
2022/12/08 09:28:35;;;;;;;16.35;10.70;;;7.60;73.70;;;;;;5053523;28;20048;-55
2022/12/08 09:31:01;;;;;;;15.20;11.07;;;7.60;73.70;;;;;;5046384;28;20037;-54
2022/12/08 09:33:28;;;;;;;15.82;11.52;;;7.60;73.60;;;;;;5033843;28;20041;-52
2022/12/08 09:35:55;;;;;;;17.55;11.65;;;7.70;73.60;;;;;;5049680;28;20044;-55
2022/12/08 09:38:26;;;;;;;16.90;11.73;;;7.70;73.60;;;;;;5053368;28;20554;-53
2022/12/08 09:40:53;;;;;;;14.43;10.57;;;7.70;73.50;;;;;;5053680;28;20128;-53
2022/12/08 09:43:36;;;;;;;16.70;12.20;;;7.70;74.10;;;;;;5050269;28;20497;-52
2022/12/08 09:46:09;;;;;;;17.88;12.02;;;7.70;73.40;;;;;;5042989;28;20124;-54
2022/12/08 09:48:46;;;;;;;17.67;12.25;;;7.70;73.40;;;;;;5053057;28;20116;-51
2022/12/08 09:51:14;;;;;;;17.75;11.57;;;7.80;73.50;;;;;;5033423;28;20042;-54
2022/12/08 09:54:01;;;;;;;16.15;11.18;;;7.80;73.50;;;;;;5044083;28;20048;-50
2022/12/08 09:56:34;;;;;;;19.25;12.73;;;7.80;73.60;;;;;;5052598;28;20119;-51
2022/12/08 09:59:28;;;;;;;21.10;11.95;;;7.80;73.60;;;;;;5033300;28;20049;-51
2022/12/08 10:01:57;;;;;;;16.88;10.77;;;7.80;73.70;;;;;;5032610;28;20482;-53
2022/12/08 10:04:33;;;;;;;18.60;11.25;;;7.80;73.60;;;;;;5050306;28;20124;-52
2022/12/08 10:07:29;;;;;;;14.88;11.15;;;7.90;73.40;;;;;;5051300;28;20037;-53
2022/12/08 10:10:10;;;;;;;16.33;11.07;;;7.90;73.30;;;;;;5050941;28;20049;-54
2022/12/08 10:13:15;;;;;;;19.67;11.40;;;7.90;73.30;;;;;;5043810;28;20386;-52
2022/12/08 10:16:09;;;;;;;17.55;10.98;;;7.90;73.20;;;;;;5048499;28;20039;-51
2022/12/08 10:18:42;;;;;;;15.88;11.18;;;8.00;73.30;;;;;;5050084;28;20056;-50
2022/12/08 10:21:21;;;;;;;20.00;11.55;;;8.00;73.20;;;;;;5050308;28;20432;-51
2022/12/08 10:23:54;;;;;;;17.77;11.15;;;8.00;73.30;;;;;;5046529;28;20124;-50
2022/12/08 10:26:23;;;;;;;21.25;12.32;;;8.00;73.40;;;;;;5052705;28;20049;-55
2022/12/08 10:28:56;;;;;;;18.83;11.70;;;8.00;73.30;;;;;;5046527;28;20045;-51
2022/12/08 10:31:25;;;;;;;15.35;11.10;;;8.00;73.20;;;;;;5041434;28;20044;-53
2022/12/08 10:33:58;;;;;;;20.55;12.98;;;8.00;73.30;;;;;;5051994;28;20571;-52
2022/12/08 10:37:07;;;;;;;19.48;11.68;;;8.10;73.70;;;;;;5052594;28;20522;-55
2022/12/08 10:39:42;;;;;;;16.40;11.02;;;8.20;73.80;;;;;;4987464;28;20042;-54
2022/12/08 10:42:13;;;;;;;18.23;11.70;;;8.30;73.70;;;;;;4990082;28;20132;-51
2022/12/08 10:44:51;;;;;;;16.70;11.90;;;8.30;73.50;;;;;;5017607;28;20075;-50
2022/12/08 10:47:24;;;;;;;20.50;11.98;;;8.40;73.20;;;;;;5045464;28;20432;-53
2022/12/08 10:50:17;;;;;;;17.42;11.93;;;8.50;73.10;;;;;;5047093;28;20045;-53
2022/12/08 10:53:09;;;;;;;17.60;10.93;;;8.50;72.50;;;;;;5051796;28;20045;-51
2022/12/08 10:55:49;;;;;;;17.38;10.75;;;8.50;72.10;;;;;;5051998;28;20045;-52
2022/12/08 10:58:29;;;;;;;16.50;11.38;;;8.50;72.00;;;;;;5049615;28;20049;-55
2022/12/08 11:01:16;;;;;;;15.90;10.20;;;8.50;71.60;;;;;;5047094;28;20044;-53
2022/12/08 11:03:53;;;;;;;14.32;9.60;;;8.50;71.70;;;;;;5051870;28;20049;-54
2022/12/08 11:06:31;;;;;;;12.85;10.82;;;8.50;71.80;;;;;;5045907;28;20059;-51
2022/12/08 11:09:05;;;;;;;16.35;9.93;;;8.50;71.80;;;;;;5047910;28;20032;-50
2022/12/08 11:11:55;;;;;;;13.18;10.30;;;8.50;71.60;;;;;;5051418;28;20033;-51
2022/12/08 11:14:28;;;;;;;15.38;9.90;;;8.50;71.30;;;;;;5031873;28;20045;-54
2022/12/08 11:17:03;;;;;;;15.40;10.45;;;8.50;71.60;;;;;;5039545;28;20099;-52
2022/12/08 11:19:53;;;;;;;15.30;9.75;;;8.50;71.60;;;;;;5046457;28;20061;-54
2022/12/08 11:22:23;;;;;;;12.43;9.65;;;8.50;71.40;;;;;;5045504;28;20505;-51
2022/12/08 11:25:06;;;;;;;13.48;9.60;;;8.50;71.60;;;;;;5051429;28;20048;-53
2022/12/08 11:27:35;;;;;;;13.52;9.55;;;8.60;71.40;;;;;;5043473;28;20400;-55
2022/12/08 11:30:11;;;;;;;11.13;8.48;;;8.60;71.60;;;;;;5051155;28;20037;-54
2022/12/08 11:32:48;;;;;;;13.40;9.27;;;8.60;71.60;;;;;;5048267;28;20481;-54
2022/12/08 11:35:29;;;;;;;13.32;9.73;;;8.60;71.60;;;;;;5047796;28;20504;-51
2022/12/08 11:38:04;;;;;;;14.10;8.77;;;8.70;71.50;;;;;;5051068;28;20045;-52
2022/12/08 11:40:54;;;;;;;13.68;8.38;;;8.70;71.20;;;;;;5051333;28;20047;-54
2022/12/08 11:43:26;;;;;;;12.27;8.93;;;8.80;71.20;;;;;;5051132;28;20041;-55
2022/12/08 11:45:59;;;;;;;14.68;8.35;;;8.80;71.10;;;;;;5039472;28;20113;-53
2022/12/08 11:48:34;;;;;;;11.30;7.55;;;8.80;70.70;;;;;;5049529;28;20406;-53
2022/12/08 11:51:23;;;;;;;12.02;8.45;;;8.80;70.70;;;;;;5050865;28;20059;-52
2022/12/08 11:54:12;;;;;;;14.00;8.05;;;8.90;70.20;;;;;;5049522;28;20044;-50
2022/12/08 11:56:45;;;;;;;11.25;7.13;;;8.90;70.00;;;;;;5048132;28;20055;-54
2022/12/08 11:59:30;;;;;;;11.63;8.35;;;9.00;70.00;;;;;;5042693;28;20049;-51
2022/12/08 12:02:03;;;;;;;13.20;8.75;;;8.90;69.60;;;;;;5036065;28;20049;-49
2022/12/08 12:04:36;;;;;;;10.32;7.93;;;8.90;70.00;;;;;;5044710;28;20049;-51
2022/12/08 12:07:06;;;;;;;;;;;9.00;69.70;;;;;;5050816;28;20041;-51
2022/12/08 12:10:15;;;;;;;9.27;6.50;;;9.00;69.70;;;;;;5051109;28;19920;-52
2022/12/08 12:13:04;;;;;;;11.13;7.68;;;9.00;69.10;;;;;;5037395;28;20303;-55
2022/12/08 12:15:58;;;;;;;11.27;7.68;;;9.00;69.20;;;;;;5053825;28;20057;-54
2022/12/08 12:18:48;;;;;;;8.70;6.70;;;9.00;68.80;;;;;;5045206;28;20154;-51
2022/12/08 12:21:20;;;;;;;10.40;7.35;;;9.00;69.30;;;;;;5049268;28;20049;-53
2022/12/08 12:24:13;;;;;;;11.07;7.65;;;9.00;69.40;;;;;;5045157;28;20049;-54
2022/12/08 12:27:01;;;;;;;12.45;7.03;;;9.00;69.00;;;;;;5047648;28;20089;-51
2022/12/08 12:29:33;;;;;;;9.45;7.20;;;9.10;68.90;;;;;;5050793;28;20116;-52
2022/12/08 12:32:11;;;;;;;10.25;6.70;;;9.00;69.00;;;;;;5048001;28;20390;-52
2022/12/08 12:34:49;;;;;;;11.45;8.25;;;9.10;69.00;;;;;;5050918;28;20044;-49
2022/12/08 12:37:41;;;;;;;10.60;7.30;;;9.10;68.50;;;;;;5034814;28;20060;-54
2022/12/08 12:40:38;;;;;;;10.52;7.20;;;9.10;68.30;;;;;;5046471;28;20045;-53
2022/12/08 12:43:23;;;;;;;11.93;7.10;;;9.10;67.70;;;;;;5044694;28;20043;-53
2022/12/08 12:45:49;;;;;;;;;;;9.10;68.40;;;;;;5047176;28;20040;-51
2022/12/08 12:48:23;;;;;;;12.68;6.47;;;9.10;68.30;;;;;;5047848;28;20011;-50
2022/12/08 12:50:54;;;;;;;11.77;7.57;;;9.10;68.20;;;;;;5054639;28;20048;-50
2022/12/08 12:53:23;;;;;;;9.30;6.90;;;9.10;68.10;;;;;;5051002;28;20029;-51
2022/12/08 12:55:58;;;;;;;9.60;7.10;;;9.00;68.10;;;;;;5051402;28;20524;-53
2022/12/08 12:58:30;;;;;;;13.40;7.20;;;9.00;68.10;;;;;;5053780;28;20397;-51
2022/12/08 13:01:10;;;;;;;11.00;7.15;;;9.00;68.10;;;;;;5047125;28;20048;-51
2022/12/08 13:03:42;;;;;;;9.02;7.47;;;9.00;67.60;;;;;;5053927;28;20041;-54
2022/12/08 13:06:15;;;;;;;10.55;7.25;;;9.00;67.80;;;;;;5041388;28;20072;-50
2022/12/08 13:08:50;;;;;;;12.23;7.43;;;9.00;67.80;;;;;;5054048;28;20404;-50
2022/12/08 13:11:21;;;;;;;8.60;7.22;;;8.90;67.50;;;;;;5045821;28;20421;-50